sensor_id;sensor_type;location;lat;lon;timestamp;P1;durP1;ratioP1;P2;durP2;ratioP2
21878;SDS011;27908;42.708;23.278;2022-12-18T00:00:46;11.10;;;5.27;;
21878;SDS011;27908;42.708;23.278;2022-12-18T00:03:12;11.20;;;5.50;;
21878;SDS011;27908;42.708;23.278;2022-12-18T00:05:45;10.88;;;5.30;;
21878;SDS011;27908;42.708;23.278;2022-12-18T00:08:15;12.20;;;6.57;;
21878;SDS011;27908;42.708;23.278;2022-12-18T00:10:47;11.27;;;5.22;;
21878;SDS011;27908;42.708;23.278;2022-12-18T00:13:13;11.90;;;5.60;;
21878;SDS011;27908;42.708;23.278;2022-12-18T00:15:39;14.60;;;6.10;;
21878;SDS011;27908;42.708;23.278;2022-12-18T00:18:04;10.90;;;4.70;;
21878;SDS011;27908;42.708;23.278;2022-12-18T00:20:30;15.07;;;7.47;;
21878;SDS011;27908;42.708;23.278;2022-12-18T00:22:56;12.52;;;6.00;;
21878;SDS011;27908;42.708;23.278;2022-12-18T00:25:21;14.30;;;6.73;;
21878;SDS011;27908;42.708;23.278;2022-12-18T00:27:47;15.32;;;5.50;;
21878;SDS011;27908;42.708;23.278;2022-12-18T00:30:13;14.03;;;6.50;;
21878;SDS011;27908;42.708;23.278;2022-12-18T00:32:38;14.73;;;7.10;;
21878;SDS011;27908;42.708;23.278;2022-12-18T00:35:05;14.23;;;6.93;;
21878;SDS011;27908;42.708;23.278;2022-12-18T00:37:33;11.57;;;6.05;;
21878;SDS011;27908;42.708;23.278;2022-12-18T00:39:58;12.95;;;5.72;;
21878;SDS011;27908;42.708;23.278;2022-12-18T00:42:24;12.57;;;6.17;;
21878;SDS011;27908;42.708;23.278;2022-12-18T00:45:08;10.68;;;5.00;;
21878;SDS011;27908;42.708;23.278;2022-12-18T00:47:33;11.87;;;5.40;;
21878;SDS011;27908;42.708;23.278;2022-12-18T00:49:59;13.07;;;6.30;;
21878;SDS011;27908;42.708;23.278;2022-12-18T00:52:24;13.50;;;5.72;;
21878;SDS011;27908;42.708;23.278;2022-12-18T00:54:50;13.57;;;6.20;;
21878;SDS011;27908;42.708;23.278;2022-12-18T00:57:15;12.30;;;6.23;;
21878;SDS011;27908;42.708;23.278;2022-12-18T00:59:40;14.33;;;6.40;;
21878;SDS011;27908;42.708;23.278;2022-12-18T01:02:06;11.80;;;5.97;;
21878;SDS011;27908;42.708;23.278;2022-12-18T01:04:32;12.82;;;6.25;;
21878;SDS011;27908;42.708;23.278;2022-12-18T01:06:58;13.07;;;5.47;;
21878;SDS011;27908;42.708;23.278;2022-12-18T01:09:23;13.73;;;6.07;;
21878;SDS011;27908;42.708;23.278;2022-12-18T01:11:49;13.47;;;6.30;;
21878;SDS011;27908;42.708;23.278;2022-12-18T01:14:14;13.60;;;6.13;;
21878;SDS011;27908;42.708;23.278;2022-12-18T01:16:40;12.50;;;6.18;;
21878;SDS011;27908;42.708;23.278;2022-12-18T01:19:05;15.13;;;6.83;;
21878;SDS011;27908;42.708;23.278;2022-12-18T01:21:31;13.90;;;5.97;;
21878;SDS011;27908;42.708;23.278;2022-12-18T01:23:56;17.00;;;7.82;;
21878;SDS011;27908;42.708;23.278;2022-12-18T01:26:22;15.63;;;8.03;;
21878;SDS011;27908;42.708;23.278;2022-12-18T01:28:48;13.23;;;6.70;;
21878;SDS011;27908;42.708;23.278;2022-12-18T01:33:46;15.20;;;7.15;;
21878;SDS011;27908;42.708;23.278;2022-12-18T01:39:05;15.52;;;6.50;;
21878;SDS011;27908;42.708;23.278;2022-12-18T01:41:36;11.68;;;5.40;;
21878;SDS011;27908;42.708;23.278;2022-12-18T01:50:16;16.13;;;6.75;;
21878;SDS011;27908;42.708;23.278;2022-12-18T01:52:55;11.05;;;5.10;;
21878;SDS011;27908;42.708;23.278;2022-12-18T01:55:26;14.80;;;7.15;;
21878;SDS011;27908;42.708;23.278;2022-12-18T01:57:55;14.37;;;6.60;;
21878;SDS011;27908;42.708;23.278;2022-12-18T02:00:23;14.98;;;6.70;;
21878;SDS011;27908;42.708;23.278;2022-12-18T02:02:50;13.48;;;6.88;;
21878;SDS011;27908;42.708;23.278;2022-12-18T02:05:20;15.50;;;6.47;;
21878;SDS011;27908;42.708;23.278;2022-12-18T02:07:58;13.13;;;5.78;;
21878;SDS011;27908;42.708;23.278;2022-12-18T02:10:28;12.13;;;5.93;;
21878;SDS011;27908;42.708;23.278;2022-12-18T02:27:13;11.02;;;5.55;;
21878;SDS011;27908;42.708;23.278;2022-12-18T02:29:40;12.07;;;5.97;;
21878;SDS011;27908;42.708;23.278;2022-12-18T02:32:14;15.20;;;5.63;;
21878;SDS011;27908;42.708;23.278;2022-12-18T02:34:42;12.90;;;5.43;;
21878;SDS011;27908;42.708;23.278;2022-12-18T02:37:10;12.05;;;6.57;;
21878;SDS011;27908;42.708;23.278;2022-12-18T02:39:40;11.55;;;6.03;;
21878;SDS011;27908;42.708;23.278;2022-12-18T02:42:08;11.82;;;5.72;;
21878;SDS011;27908;42.708;23.278;2022-12-18T02:44:35;12.33;;;6.07;;
21878;SDS011;27908;42.708;23.278;2022-12-18T02:47:08;10.57;;;5.25;;
21878;SDS011;27908;42.708;23.278;2022-12-18T03:00:51;13.02;;;5.75;;
21878;SDS011;27908;42.708;23.278;2022-12-18T03:06:12;11.57;;;5.88;;
21878;SDS011;27908;42.708;23.278;2022-12-18T03:08:46;14.02;;;5.95;;
21878;SDS011;27908;42.708;23.278;2022-12-18T03:11:16;16.07;;;5.60;;
21878;SDS011;27908;42.708;23.278;2022-12-18T03:14:02;12.82;;;5.90;;
21878;SDS011;27908;42.708;23.278;2022-12-18T03:16:31;15.57;;;7.22;;
21878;SDS011;27908;42.708;23.278;2022-12-18T03:19:16;13.30;;;5.45;;
21878;SDS011;27908;42.708;23.278;2022-12-18T03:21:47;16.80;;;7.32;;
21878;SDS011;27908;42.708;23.278;2022-12-18T03:24:17;12.53;;;5.60;;
21878;SDS011;27908;42.708;23.278;2022-12-18T03:26:46;16.00;;;7.65;;
21878;SDS011;27908;42.708;23.278;2022-12-18T03:32:11;10.82;;;5.60;;
21878;SDS011;27908;42.708;23.278;2022-12-18T03:34:46;18.98;;;6.80;;
21878;SDS011;27908;42.708;23.278;2022-12-18T03:37:15;15.47;;;6.87;;
21878;SDS011;27908;42.708;23.278;2022-12-18T03:39:40;11.60;;;5.88;;
21878;SDS011;27908;42.708;23.278;2022-12-18T03:52:36;12.00;;;5.47;;
21878;SDS011;27908;42.708;23.278;2022-12-18T03:55:05;13.43;;;6.93;;
21878;SDS011;27908;42.708;23.278;2022-12-18T03:57:33;15.05;;;5.50;;
21878;SDS011;27908;42.708;23.278;2022-12-18T04:00:06;16.17;;;6.55;;
21878;SDS011;27908;42.708;23.278;2022-12-18T04:02:38;14.52;;;6.00;;
21878;SDS011;27908;42.708;23.278;2022-12-18T04:05:08;13.13;;;6.53;;
21878;SDS011;27908;42.708;23.278;2022-12-18T04:07:36;8.73;;;4.50;;
21878;SDS011;27908;42.708;23.278;2022-12-18T04:10:03;16.58;;;6.82;;
21878;SDS011;27908;42.708;23.278;2022-12-18T04:12:31;15.85;;;6.60;;
21878;SDS011;27908;42.708;23.278;2022-12-18T04:14:57;14.77;;;6.83;;
21878;SDS011;27908;42.708;23.278;2022-12-18T04:17:22;16.17;;;7.18;;
21878;SDS011;27908;42.708;23.278;2022-12-18T04:19:48;14.80;;;6.77;;
21878;SDS011;27908;42.708;23.278;2022-12-18T04:22:14;16.13;;;6.25;;
21878;SDS011;27908;42.708;23.278;2022-12-18T04:24:40;16.50;;;7.38;;
21878;SDS011;27908;42.708;23.278;2022-12-18T04:27:05;17.93;;;7.57;;
21878;SDS011;27908;42.708;23.278;2022-12-18T04:29:31;15.67;;;6.60;;
21878;SDS011;27908;42.708;23.278;2022-12-18T04:31:57;17.20;;;7.72;;
21878;SDS011;27908;42.708;23.278;2022-12-18T04:34:22;16.23;;;7.47;;
21878;SDS011;27908;42.708;23.278;2022-12-18T04:36:47;16.80;;;7.13;;
21878;SDS011;27908;42.708;23.278;2022-12-18T04:39:13;18.27;;;8.00;;
21878;SDS011;27908;42.708;23.278;2022-12-18T04:41:39;19.00;;;7.65;;
21878;SDS011;27908;42.708;23.278;2022-12-18T04:44:04;19.83;;;8.70;;
21878;SDS011;27908;42.708;23.278;2022-12-18T04:46:30;17.45;;;7.72;;
21878;SDS011;27908;42.708;23.278;2022-12-18T04:48:55;19.03;;;8.27;;
21878;SDS011;27908;42.708;23.278;2022-12-18T04:51:20;17.93;;;8.00;;
21878;SDS011;27908;42.708;23.278;2022-12-18T04:53:46;16.95;;;8.32;;
21878;SDS011;27908;42.708;23.278;2022-12-18T04:56:13;18.70;;;7.40;;
21878;SDS011;27908;42.708;23.278;2022-12-18T04:58:40;16.23;;;6.63;;
21878;SDS011;27908;42.708;23.278;2022-12-18T05:01:07;18.40;;;7.38;;
21878;SDS011;27908;42.708;23.278;2022-12-18T05:03:33;20.00;;;9.10;;
21878;SDS011;27908;42.708;23.278;2022-12-18T05:05:59;20.75;;;10.45;;
21878;SDS011;27908;42.708;23.278;2022-12-18T05:08:25;20.15;;;9.05;;
21878;SDS011;27908;42.708;23.278;2022-12-18T05:13:26;20.95;;;9.75;;
21878;SDS011;27908;42.708;23.278;2022-12-18T05:15:52;20.02;;;8.15;;
21878;SDS011;27908;42.708;23.278;2022-12-18T05:18:18;17.83;;;8.15;;
21878;SDS011;27908;42.708;23.278;2022-12-18T05:20:43;17.30;;;8.00;;
21878;SDS011;27908;42.708;23.278;2022-12-18T05:23:09;18.83;;;8.47;;
21878;SDS011;27908;42.708;23.278;2022-12-18T05:25:34;14.33;;;7.60;;
21878;SDS011;27908;42.708;23.278;2022-12-18T05:28:00;17.20;;;7.73;;
21878;SDS011;27908;42.708;23.278;2022-12-18T05:30:25;14.27;;;6.22;;
21878;SDS011;27908;42.708;23.278;2022-12-18T05:32:51;16.13;;;7.57;;
21878;SDS011;27908;42.708;23.278;2022-12-18T05:35:16;15.43;;;7.00;;
21878;SDS011;27908;42.708;23.278;2022-12-18T05:37:41;21.67;;;8.90;;
21878;SDS011;27908;42.708;23.278;2022-12-18T05:40:07;16.77;;;7.70;;
21878;SDS011;27908;42.708;23.278;2022-12-18T05:42:33;20.43;;;7.30;;
21878;SDS011;27908;42.708;23.278;2022-12-18T05:44:58;16.77;;;8.57;;
21878;SDS011;27908;42.708;23.278;2022-12-18T05:47:24;17.77;;;8.27;;
21878;SDS011;27908;42.708;23.278;2022-12-18T05:49:49;18.67;;;8.37;;
21878;SDS011;27908;42.708;23.278;2022-12-18T05:52:14;20.17;;;9.50;;
21878;SDS011;27908;42.708;23.278;2022-12-18T05:54:40;18.52;;;8.57;;
21878;SDS011;27908;42.708;23.278;2022-12-18T05:57:05;22.20;;;9.47;;
21878;SDS011;27908;42.708;23.278;2022-12-18T05:59:31;21.07;;;9.47;;
21878;SDS011;27908;42.708;23.278;2022-12-18T06:01:56;24.20;;;10.13;;
21878;SDS011;27908;42.708;23.278;2022-12-18T06:04:22;17.73;;;8.40;;
21878;SDS011;27908;42.708;23.278;2022-12-18T06:06:47;18.07;;;8.37;;
21878;SDS011;27908;42.708;23.278;2022-12-18T06:09:13;19.30;;;8.30;;
21878;SDS011;27908;42.708;23.278;2022-12-18T06:11:39;18.03;;;8.33;;
21878;SDS011;27908;42.708;23.278;2022-12-18T06:14:04;17.03;;;7.00;;
21878;SDS011;27908;42.708;23.278;2022-12-18T06:16:31;20.15;;;9.25;;
21878;SDS011;27908;42.708;23.278;2022-12-18T06:18:57;21.70;;;9.93;;
21878;SDS011;27908;42.708;23.278;2022-12-18T06:21:24;23.13;;;10.25;;
21878;SDS011;27908;42.708;23.278;2022-12-18T06:23:50;20.87;;;8.40;;
21878;SDS011;27908;42.708;23.278;2022-12-18T06:26:15;22.40;;;9.03;;
21878;SDS011;27908;42.708;23.278;2022-12-18T06:28:41;29.03;;;10.10;;
21878;SDS011;27908;42.708;23.278;2022-12-18T06:31:07;20.30;;;9.10;;
21878;SDS011;27908;42.708;23.278;2022-12-18T06:33:33;16.83;;;6.80;;
21878;SDS011;27908;42.708;23.278;2022-12-18T06:36:03;16.55;;;7.25;;
21878;SDS011;27908;42.708;23.278;2022-12-18T06:38:32;21.90;;;8.57;;
21878;SDS011;27908;42.708;23.278;2022-12-18T06:40:58;19.75;;;7.95;;
21878;SDS011;27908;42.708;23.278;2022-12-18T06:43:23;20.83;;;8.80;;
21878;SDS011;27908;42.708;23.278;2022-12-18T06:45:49;14.38;;;6.50;;
21878;SDS011;27908;42.708;23.278;2022-12-18T06:48:18;19.85;;;8.85;;
21878;SDS011;27908;42.708;23.278;2022-12-18T06:50:45;18.47;;;7.47;;
21878;SDS011;27908;42.708;23.278;2022-12-18T06:53:10;20.63;;;8.18;;
21878;SDS011;27908;42.708;23.278;2022-12-18T06:55:36;20.67;;;7.87;;
21878;SDS011;27908;42.708;23.278;2022-12-18T06:58:01;19.73;;;8.43;;
21878;SDS011;27908;42.708;23.278;2022-12-18T07:00:27;16.77;;;6.50;;
21878;SDS011;27908;42.708;23.278;2022-12-18T07:02:52;16.00;;;7.23;;
21878;SDS011;27908;42.708;23.278;2022-12-18T07:05:17;19.23;;;8.53;;
21878;SDS011;27908;42.708;23.278;2022-12-18T07:07:43;22.47;;;11.10;;
21878;SDS011;27908;42.708;23.278;2022-12-18T07:10:08;17.80;;;7.27;;
21878;SDS011;27908;42.708;23.278;2022-12-18T07:12:34;19.17;;;8.65;;
21878;SDS011;27908;42.708;23.278;2022-12-18T07:14:59;22.53;;;9.33;;
21878;SDS011;27908;42.708;23.278;2022-12-18T07:17:25;24.60;;;11.43;;
21878;SDS011;27908;42.708;23.278;2022-12-18T07:19:50;17.50;;;8.20;;
21878;SDS011;27908;42.708;23.278;2022-12-18T07:22:16;25.97;;;9.73;;
21878;SDS011;27908;42.708;23.278;2022-12-18T07:24:41;24.37;;;11.23;;
21878;SDS011;27908;42.708;23.278;2022-12-18T07:27:06;24.97;;;10.33;;
21878;SDS011;27908;42.708;23.278;2022-12-18T07:29:32;25.40;;;10.60;;
21878;SDS011;27908;42.708;23.278;2022-12-18T07:31:57;24.50;;;10.97;;
21878;SDS011;27908;42.708;23.278;2022-12-18T07:34:22;20.07;;;8.30;;
21878;SDS011;27908;42.708;23.278;2022-12-18T07:36:48;19.37;;;8.87;;
21878;SDS011;27908;42.708;23.278;2022-12-18T07:39:13;26.30;;;10.67;;
21878;SDS011;27908;42.708;23.278;2022-12-18T07:41:39;28.27;;;10.07;;
21878;SDS011;27908;42.708;23.278;2022-12-18T07:44:10;25.30;;;10.10;;
21878;SDS011;27908;42.708;23.278;2022-12-18T07:46:36;25.60;;;11.18;;
21878;SDS011;27908;42.708;23.278;2022-12-18T07:49:02;21.77;;;9.87;;
21878;SDS011;27908;42.708;23.278;2022-12-18T07:51:27;25.23;;;10.80;;
21878;SDS011;27908;42.708;23.278;2022-12-18T07:53:52;25.47;;;9.10;;
21878;SDS011;27908;42.708;23.278;2022-12-18T07:56:18;25.67;;;10.13;;
21878;SDS011;27908;42.708;23.278;2022-12-18T07:58:44;22.35;;;9.70;;
21878;SDS011;27908;42.708;23.278;2022-12-18T08:01:10;28.23;;;11.50;;
21878;SDS011;27908;42.708;23.278;2022-12-18T08:03:37;23.23;;;9.70;;
21878;SDS011;27908;42.708;23.278;2022-12-18T08:06:05;22.02;;;9.10;;
21878;SDS011;27908;42.708;23.278;2022-12-18T08:08:32;20.90;;;9.70;;
21878;SDS011;27908;42.708;23.278;2022-12-18T08:10:59;31.17;;;11.70;;
21878;SDS011;27908;42.708;23.278;2022-12-18T08:13:25;26.25;;;11.50;;
21878;SDS011;27908;42.708;23.278;2022-12-18T08:16:04;22.73;;;9.77;;
21878;SDS011;27908;42.708;23.278;2022-12-18T08:18:32;24.48;;;11.13;;
21878;SDS011;27908;42.708;23.278;2022-12-18T08:21:02;22.50;;;9.73;;
21878;SDS011;27908;42.708;23.278;2022-12-18T08:23:35;40.42;;;16.85;;
21878;SDS011;27908;42.708;23.278;2022-12-18T08:26:01;30.48;;;12.27;;
21878;SDS011;27908;42.708;23.278;2022-12-18T08:28:26;23.93;;;9.50;;
21878;SDS011;27908;42.708;23.278;2022-12-18T08:30:52;24.13;;;10.07;;
21878;SDS011;27908;42.708;23.278;2022-12-18T08:33:17;25.27;;;11.30;;
21878;SDS011;27908;42.708;23.278;2022-12-18T08:35:43;25.15;;;10.43;;
21878;SDS011;27908;42.708;23.278;2022-12-18T08:38:08;22.10;;;9.83;;
21878;SDS011;27908;42.708;23.278;2022-12-18T08:40:33;28.47;;;11.23;;
21878;SDS011;27908;42.708;23.278;2022-12-18T08:42:59;23.67;;;10.70;;
21878;SDS011;27908;42.708;23.278;2022-12-18T08:45:43;17.95;;;8.32;;
21878;SDS011;27908;42.708;23.278;2022-12-18T08:48:08;16.43;;;7.70;;
21878;SDS011;27908;42.708;23.278;2022-12-18T08:50:35;22.27;;;9.35;;
21878;SDS011;27908;42.708;23.278;2022-12-18T08:53:01;21.20;;;9.30;;
21878;SDS011;27908;42.708;23.278;2022-12-18T08:55:26;19.73;;;8.70;;
21878;SDS011;27908;42.708;23.278;2022-12-18T08:57:51;19.07;;;8.67;;
21878;SDS011;27908;42.708;23.278;2022-12-18T09:00:17;20.10;;;7.97;;
21878;SDS011;27908;42.708;23.278;2022-12-18T09:02:42;18.55;;;8.40;;
21878;SDS011;27908;42.708;23.278;2022-12-18T09:05:08;22.83;;;8.90;;
21878;SDS011;27908;42.708;23.278;2022-12-18T09:07:33;26.63;;;9.03;;
21878;SDS011;27908;42.708;23.278;2022-12-18T09:09:59;22.57;;;9.33;;
21878;SDS011;27908;42.708;23.278;2022-12-18T09:12:24;20.92;;;8.50;;
21878;SDS011;27908;42.708;23.278;2022-12-18T09:14:50;19.07;;;8.40;;
21878;SDS011;27908;42.708;23.278;2022-12-18T09:17:15;19.67;;;8.47;;
21878;SDS011;27908;42.708;23.278;2022-12-18T09:19:41;20.73;;;7.37;;
21878;SDS011;27908;42.708;23.278;2022-12-18T09:22:06;16.92;;;7.15;;
21878;SDS011;27908;42.708;23.278;2022-12-18T09:24:32;22.17;;;8.60;;
21878;SDS011;27908;42.708;23.278;2022-12-18T09:26:57;21.27;;;9.10;;
21878;SDS011;27908;42.708;23.278;2022-12-18T09:29:22;14.83;;;6.87;;
21878;SDS011;27908;42.708;23.278;2022-12-18T09:31:48;20.40;;;8.20;;
21878;SDS011;27908;42.708;23.278;2022-12-18T09:34:14;24.60;;;10.27;;
21878;SDS011;27908;42.708;23.278;2022-12-18T09:36:40;19.98;;;7.93;;
21878;SDS011;27908;42.708;23.278;2022-12-18T09:39:06;18.60;;;7.17;;
21878;SDS011;27908;42.708;23.278;2022-12-18T09:41:43;22.52;;;9.27;;
21878;SDS011;27908;42.708;23.278;2022-12-18T09:44:19;22.25;;;8.60;;
21878;SDS011;27908;42.708;23.278;2022-12-18T09:50:04;13.88;;;6.53;;
21878;SDS011;27908;42.708;23.278;2022-12-18T09:52:44;19.45;;;7.78;;
21878;SDS011;27908;42.708;23.278;2022-12-18T09:55:26;17.52;;;8.27;;
21878;SDS011;27908;42.708;23.278;2022-12-18T09:57:58;19.38;;;7.13;;
21878;SDS011;27908;42.708;23.278;2022-12-18T10:00:47;17.47;;;7.03;;
21878;SDS011;27908;42.708;23.278;2022-12-18T10:03:16;19.50;;;7.75;;
21878;SDS011;27908;42.708;23.278;2022-12-18T10:08:32;14.15;;;6.65;;
21878;SDS011;27908;42.708;23.278;2022-12-18T10:13:47;17.42;;;8.52;;
21878;SDS011;27908;42.708;23.278;2022-12-18T10:16:57;22.67;;;8.77;;
21878;SDS011;27908;42.708;23.278;2022-12-18T10:22:26;14.77;;;6.63;;
21878;SDS011;27908;42.708;23.278;2022-12-18T10:27:29;19.95;;;8.40;;
21878;SDS011;27908;42.708;23.278;2022-12-18T10:29:55;21.25;;;8.45;;
21878;SDS011;27908;42.708;23.278;2022-12-18T10:32:24;21.40;;;9.00;;
21878;SDS011;27908;42.708;23.278;2022-12-18T10:34:53;17.10;;;8.00;;
21878;SDS011;27908;42.708;23.278;2022-12-18T10:37:24;22.42;;;9.48;;
21878;SDS011;27908;42.708;23.278;2022-12-18T10:42:40;21.70;;;9.23;;
21878;SDS011;27908;42.708;23.278;2022-12-18T10:45:14;20.48;;;9.00;;
21878;SDS011;27908;42.708;23.278;2022-12-18T10:47:42;18.15;;;8.25;;
21878;SDS011;27908;42.708;23.278;2022-12-18T10:50:18;16.80;;;7.88;;
21878;SDS011;27908;42.708;23.278;2022-12-18T10:53:01;19.67;;;7.90;;
21878;SDS011;27908;42.708;23.278;2022-12-18T10:55:33;24.83;;;8.35;;
21878;SDS011;27908;42.708;23.278;2022-12-18T11:01:01;21.23;;;8.15;;
21878;SDS011;27908;42.708;23.278;2022-12-18T11:03:34;17.92;;;6.85;;
21878;SDS011;27908;42.708;23.278;2022-12-18T11:06:11;17.53;;;7.67;;
21878;SDS011;27908;42.708;23.278;2022-12-18T11:08:42;16.15;;;7.38;;
21878;SDS011;27908;42.708;23.278;2022-12-18T11:11:19;19.48;;;8.57;;
21878;SDS011;27908;42.708;23.278;2022-12-18T11:14:05;20.63;;;9.35;;
21878;SDS011;27908;42.708;23.278;2022-12-18T11:16:42;19.90;;;9.00;;
21878;SDS011;27908;42.708;23.278;2022-12-18T11:19:13;26.57;;;10.33;;
21878;SDS011;27908;42.708;23.278;2022-12-18T11:21:51;19.25;;;8.00;;
21878;SDS011;27908;42.708;23.278;2022-12-18T11:24:27;19.35;;;9.02;;
21878;SDS011;27908;42.708;23.278;2022-12-18T11:27:02;18.57;;;7.47;;
21878;SDS011;27908;42.708;23.278;2022-12-18T11:29:33;19.02;;;7.22;;
21878;SDS011;27908;42.708;23.278;2022-12-18T11:34:49;19.00;;;8.05;;
21878;SDS011;27908;42.708;23.278;2022-12-18T11:37:21;24.92;;;10.50;;
21878;SDS011;27908;42.708;23.278;2022-12-18T11:39:58;23.03;;;9.00;;
21878;SDS011;27908;42.708;23.278;2022-12-18T11:50:18;20.98;;;10.10;;
21878;SDS011;27908;42.708;23.278;2022-12-18T11:52:48;19.70;;;8.10;;
21878;SDS011;27908;42.708;23.278;2022-12-18T11:55:27;20.93;;;9.00;;
21878;SDS011;27908;42.708;23.278;2022-12-18T11:58:05;20.50;;;8.20;;
21878;SDS011;27908;42.708;23.278;2022-12-18T12:00:42;25.77;;;10.35;;
21878;SDS011;27908;42.708;23.278;2022-12-18T12:16:57;27.02;;;9.25;;
21878;SDS011;27908;42.708;23.278;2022-12-18T12:22:08;23.37;;;9.53;;
21878;SDS011;27908;42.708;23.278;2022-12-18T12:36:12;27.40;;;9.90;;
21878;SDS011;27908;42.708;23.278;2022-12-18T12:38:55;18.35;;;8.20;;
21878;SDS011;27908;42.708;23.278;2022-12-18T12:41:26;22.25;;;10.15;;
21878;SDS011;27908;42.708;23.278;2022-12-18T12:44:16;18.63;;;8.63;;
21878;SDS011;27908;42.708;23.278;2022-12-18T12:46:47;30.15;;;11.50;;
21878;SDS011;27908;42.708;23.278;2022-12-18T12:49:15;17.57;;;8.10;;
21878;SDS011;27908;42.708;23.278;2022-12-18T12:51:48;20.75;;;8.57;;
21878;SDS011;27908;42.708;23.278;2022-12-18T12:54:21;21.33;;;8.23;;
21878;SDS011;27908;42.708;23.278;2022-12-18T13:07:18;17.92;;;8.15;;
21878;SDS011;27908;42.708;23.278;2022-12-18T13:12:51;16.73;;;7.25;;
21878;SDS011;27908;42.708;23.278;2022-12-18T13:18:10;19.55;;;8.02;;
21878;SDS011;27908;42.708;23.278;2022-12-18T13:20:43;23.42;;;9.38;;
21878;SDS011;27908;42.708;23.278;2022-12-18T13:25:50;23.30;;;8.73;;
21878;SDS011;27908;42.708;23.278;2022-12-18T13:28:21;23.60;;;9.40;;
21878;SDS011;27908;42.708;23.278;2022-12-18T13:31:06;18.73;;;8.13;;
21878;SDS011;27908;42.708;23.278;2022-12-18T13:36:27;18.58;;;7.70;;
21878;SDS011;27908;42.708;23.278;2022-12-18T13:41:38;21.88;;;8.88;;
21878;SDS011;27908;42.708;23.278;2022-12-18T13:46:57;21.47;;;8.77;;
21878;SDS011;27908;42.708;23.278;2022-12-18T13:49:37;29.83;;;10.48;;
21878;SDS011;27908;42.708;23.278;2022-12-18T13:52:27;23.65;;;9.65;;
21878;SDS011;27908;42.708;23.278;2022-12-18T13:54:53;19.42;;;7.88;;
21878;SDS011;27908;42.708;23.278;2022-12-18T13:59:54;20.43;;;8.00;;
21878;SDS011;27908;42.708;23.278;2022-12-18T14:02:21;19.77;;;9.18;;
21878;SDS011;27908;42.708;23.278;2022-12-18T14:04:48;22.23;;;7.07;;
21878;SDS011;27908;42.708;23.278;2022-12-18T14:07:16;18.38;;;7.93;;
21878;SDS011;27908;42.708;23.278;2022-12-18T14:09:54;19.23;;;7.68;;
21878;SDS011;27908;42.708;23.278;2022-12-18T14:12:29;20.30;;;7.60;;
21878;SDS011;27908;42.708;23.278;2022-12-18T14:20:25;15.05;;;6.60;;
21878;SDS011;27908;42.708;23.278;2022-12-18T14:22:52;23.40;;;8.60;;
21878;SDS011;27908;42.708;23.278;2022-12-18T14:25:19;17.63;;;7.63;;
21878;SDS011;27908;42.708;23.278;2022-12-18T14:27:48;18.77;;;7.57;;
21878;SDS011;27908;42.708;23.278;2022-12-18T14:30:26;19.13;;;7.93;;
21878;SDS011;27908;42.708;23.278;2022-12-18T14:33:00;24.37;;;8.00;;
21878;SDS011;27908;42.708;23.278;2022-12-18T14:35:36;17.52;;;6.40;;
21878;SDS011;27908;42.708;23.278;2022-12-18T14:40:47;17.23;;;7.63;;
21878;SDS011;27908;42.708;23.278;2022-12-18T14:43:37;19.90;;;7.68;;
21878;SDS011;27908;42.708;23.278;2022-12-18T14:48:58;17.05;;;6.95;;
21878;SDS011;27908;42.708;23.278;2022-12-18T14:51:50;13.80;;;6.22;;
21878;SDS011;27908;42.708;23.278;2022-12-18T14:54:20;12.68;;;6.28;;
21878;SDS011;27908;42.708;23.278;2022-12-18T14:56:51;15.60;;;6.05;;
21878;SDS011;27908;42.708;23.278;2022-12-18T14:59:23;17.33;;;6.77;;
21878;SDS011;27908;42.708;23.278;2022-12-18T15:04:38;14.85;;;5.88;;
21878;SDS011;27908;42.708;23.278;2022-12-18T15:07:15;16.00;;;6.28;;
21878;SDS011;27908;42.708;23.278;2022-12-18T15:12:36;17.53;;;6.10;;
21878;SDS011;27908;42.708;23.278;2022-12-18T15:15:05;17.83;;;7.10;;
21878;SDS011;27908;42.708;23.278;2022-12-18T15:17:56;14.30;;;5.75;;
21878;SDS011;27908;42.708;23.278;2022-12-18T15:20:23;16.60;;;6.53;;
21878;SDS011;27908;42.708;23.278;2022-12-18T15:22:48;17.00;;;7.53;;
21878;SDS011;27908;42.708;23.278;2022-12-18T15:25:34;18.63;;;6.90;;
21878;SDS011;27908;42.708;23.278;2022-12-18T15:28:02;18.38;;;6.60;;
21878;SDS011;27908;42.708;23.278;2022-12-18T15:30:29;16.00;;;7.03;;
21878;SDS011;27908;42.708;23.278;2022-12-18T15:35:55;18.00;;;7.70;;
21878;SDS011;27908;42.708;23.278;2022-12-18T15:38:21;16.90;;;6.70;;
21878;SDS011;27908;42.708;23.278;2022-12-18T15:40:46;20.47;;;8.23;;
21878;SDS011;27908;42.708;23.278;2022-12-18T15:43:12;18.80;;;7.37;;
21878;SDS011;27908;42.708;23.278;2022-12-18T15:45:56;16.67;;;6.78;;
21878;SDS011;27908;42.708;23.278;2022-12-18T15:48:21;19.00;;;7.90;;
21878;SDS011;27908;42.708;23.278;2022-12-18T15:50:48;16.35;;;6.43;;
21878;SDS011;27908;42.708;23.278;2022-12-18T15:53:15;15.27;;;6.15;;
21878;SDS011;27908;42.708;23.278;2022-12-18T15:55:41;21.33;;;8.20;;
21878;SDS011;27908;42.708;23.278;2022-12-18T15:58:25;26.55;;;9.10;;
21878;SDS011;27908;42.708;23.278;2022-12-18T16:00:51;22.53;;;8.07;;
21878;SDS011;27908;42.708;23.278;2022-12-18T16:03:16;19.17;;;7.45;;
21878;SDS011;27908;42.708;23.278;2022-12-18T16:05:42;17.97;;;7.53;;
21878;SDS011;27908;42.708;23.278;2022-12-18T16:08:07;19.97;;;9.03;;
21878;SDS011;27908;42.708;23.278;2022-12-18T16:10:33;23.73;;;8.83;;
21878;SDS011;27908;42.708;23.278;2022-12-18T16:12:59;17.55;;;6.85;;
21878;SDS011;27908;42.708;23.278;2022-12-18T16:15:25;18.73;;;8.40;;
21878;SDS011;27908;42.708;23.278;2022-12-18T16:17:50;20.30;;;8.70;;
21878;SDS011;27908;42.708;23.278;2022-12-18T16:20:17;20.83;;;8.25;;
21878;SDS011;27908;42.708;23.278;2022-12-18T16:22:46;19.05;;;7.45;;
21878;SDS011;27908;42.708;23.278;2022-12-18T16:25:25;21.07;;;8.80;;
21878;SDS011;27908;42.708;23.278;2022-12-18T16:27:52;18.20;;;6.93;;
21878;SDS011;27908;42.708;23.278;2022-12-18T16:30:27;18.15;;;6.68;;
21878;SDS011;27908;42.708;23.278;2022-12-18T16:32:55;23.13;;;8.68;;
21878;SDS011;27908;42.708;23.278;2022-12-18T16:35:24;21.13;;;8.65;;
21878;SDS011;27908;42.708;23.278;2022-12-18T16:37:50;20.40;;;8.30;;
21878;SDS011;27908;42.708;23.278;2022-12-18T16:40:17;20.55;;;7.93;;
21878;SDS011;27908;42.708;23.278;2022-12-18T16:42:43;22.88;;;8.68;;
21878;SDS011;27908;42.708;23.278;2022-12-18T16:45:11;23.15;;;8.75;;
21878;SDS011;27908;42.708;23.278;2022-12-18T16:47:39;24.33;;;10.13;;
21878;SDS011;27908;42.708;23.278;2022-12-18T16:50:05;25.38;;;9.52;;
21878;SDS011;27908;42.708;23.278;2022-12-18T16:52:32;21.05;;;9.23;;
21878;SDS011;27908;42.708;23.278;2022-12-18T16:54:58;22.73;;;8.77;;
21878;SDS011;27908;42.708;23.278;2022-12-18T16:57:23;23.83;;;10.10;;
21878;SDS011;27908;42.708;23.278;2022-12-18T16:59:48;19.00;;;7.97;;
21878;SDS011;27908;42.708;23.278;2022-12-18T17:04:44;23.88;;;9.18;;
21878;SDS011;27908;42.708;23.278;2022-12-18T17:07:10;22.35;;;8.68;;
21878;SDS011;27908;42.708;23.278;2022-12-18T17:09:36;23.77;;;9.32;;
21878;SDS011;27908;42.708;23.278;2022-12-18T17:12:02;21.23;;;8.37;;
21878;SDS011;27908;42.708;23.278;2022-12-18T17:14:28;20.73;;;8.45;;
21878;SDS011;27908;42.708;23.278;2022-12-18T17:16:53;24.13;;;10.20;;